createdAt,value
2019-05-21T00:00:41.304Z,98.30
2019-05-21T00:03:11.140Z,95.40
2019-05-21T00:05:43.255Z,96.80
2019-05-21T00:11:57.502Z,97.00
2019-05-21T00:14:26.987Z,95.70
2019-05-21T00:17:03.288Z,92.40
2019-05-21T00:19:33.572Z,96.90
2019-05-21T00:22:03.288Z,99.50
2019-05-21T00:28:49.103Z,97.90
2019-05-21T00:31:55.473Z,93.90
2019-05-21T00:35:01.328Z,96.70
2019-05-21T00:38:06.883Z,95.60
2019-05-21T00:41:11.828Z,99.20
2019-05-21T00:43:51.439Z,96.30
2019-05-21T00:46:21.265Z,96.30
2019-05-21T00:48:51.179Z,97.30
2019-05-21T00:51:21.036Z,96.40
2019-05-21T00:53:50.824Z,95.90
2019-05-21T00:56:20.598Z,96.00
2019-05-21T00:58:51.525Z,97.60
2019-05-21T01:01:21.492Z,95.00
2019-05-21T01:03:51.615Z,95.80
2019-05-21T01:06:21.635Z,98.10
2019-05-21T01:08:54.411Z,98.80
2019-05-21T01:11:24.291Z,97.90
2019-05-21T01:13:58.350Z,96.60
2019-05-21T01:16:28.369Z,97.30
2019-05-21T01:19:05.016Z,97.10
2019-05-21T01:21:34.712Z,96.90
2019-05-21T01:24:05.057Z,97.10
2019-05-21T01:26:35.078Z,96.70
2019-05-21T01:29:06.903Z,96.40
2019-05-21T01:31:36.846Z,92.90
2019-05-21T01:34:06.656Z,92.10
2019-05-21T01:36:37.100Z,93.60
2019-05-21T01:39:07.050Z,91.60
2019-05-21T01:41:36.767Z,96.80
2019-05-21T01:44:06.697Z,94.20
2019-05-21T01:46:36.950Z,97.30
2019-05-21T01:49:06.720Z,96.90
2019-05-21T01:51:36.514Z,96.70
2019-05-21T01:54:06.770Z,96.80
2019-05-21T01:56:36.389Z,93.10
2019-05-21T01:59:06.540Z,95.80
2019-05-21T02:01:36.229Z,96.90
2019-05-21T02:04:06.294Z,97.70
2019-05-21T02:06:36.142Z,95.50
2019-05-21T02:09:07.826Z,95.80
2019-05-21T02:11:37.638Z,95.40
2019-05-21T02:14:08.100Z,96.00
2019-05-21T02:16:38.258Z,98.90
2019-05-21T02:19:08.074Z,96.20
2019-05-21T02:21:38.721Z,96.50
2019-05-21T02:24:08.855Z,94.40
2019-05-21T02:26:38.688Z,98.20
2019-05-21T02:32:34.467Z,97.90
2019-05-21T02:35:06.048Z,98.40
2019-05-21T02:37:35.998Z,97.50
2019-05-21T02:40:06.674Z,97.50
2019-05-21T02:42:36.877Z,98.40
2019-05-21T02:45:08.283Z,93.90
2019-05-21T02:47:38.283Z,93.50
2019-05-21T02:50:08.484Z,91.60
2019-05-21T02:52:38.340Z,92.70
2019-05-21T02:55:08.974Z,96.10
2019-05-21T02:57:40.462Z,97.20
2019-05-21T03:00:32.037Z,91.70
2019-05-21T03:03:04.047Z,90.90
2019-05-21T03:05:34.377Z,90.80
2019-05-21T03:08:04.784Z,95.00
2019-05-21T03:10:34.682Z,90.60
2019-05-21T03:13:04.827Z,97.10
2019-05-21T03:15:34.553Z,98.70
2019-05-21T03:18:04.674Z,98.10
2019-05-21T03:20:34.404Z,92.00
2019-05-21T03:23:04.168Z,95.40
2019-05-21T03:25:33.994Z,97.30
2019-05-21T03:28:03.649Z,96.30
2019-05-21T03:30:33.385Z,96.10
2019-05-21T03:33:03.462Z,92.50
2019-05-21T03:35:33.366Z,94.40
2019-05-21T03:38:03.177Z,94.00
2019-05-21T03:40:33.435Z,97.20
2019-05-21T03:43:03.220Z,96.90
2019-05-21T03:45:34.664Z,94.90
2019-05-21T03:48:04.744Z,94.40
2019-05-21T03:50:34.738Z,95.10
2019-05-21T03:53:04.445Z,97.80
2019-05-21T03:55:34.169Z,93.90
2019-05-21T03:58:03.766Z,97.80
2019-05-21T04:00:33.804Z,96.20
2019-05-21T04:03:03.763Z,96.80
2019-05-21T04:05:33.639Z,91.60
2019-05-21T04:08:03.192Z,96.30
2019-05-21T04:10:33.021Z,95.60
2019-05-21T04:13:08.302Z,95.10
2019-05-21T04:15:59.624Z,97.30
2019-05-21T04:18:37.357Z,96.40
2019-05-21T04:21:07.559Z,97.50
2019-05-21T04:23:38.065Z,98.60
2019-05-21T04:26:08.285Z,99.20
2019-05-21T04:28:38.444Z,96.50
2019-05-21T04:31:08.444Z,96.40
2019-05-21T04:33:38.242Z,98.60
2019-05-21T04:36:08.221Z,99.50
2019-05-21T04:38:38.776Z,97.60
2019-05-21T04:41:08.491Z,96.10
2019-05-21T04:43:38.226Z,99.90
2019-05-21T04:46:08.704Z,99.90
2019-05-21T04:48:39.490Z,99.90
2019-05-21T04:51:13.517Z,99.90
2019-05-21T04:53:41.349Z,99.90
2019-05-21T04:56:11.712Z,99.90
2019-05-21T04:58:41.743Z,99.90
2019-05-21T05:01:12.281Z,99.90
2019-05-21T05:03:42.344Z,99.90
2019-05-21T05:06:12.774Z,99.90
2019-05-21T05:08:42.580Z,99.90
2019-05-21T05:11:13.107Z,99.90
2019-05-21T05:13:42.724Z,99.90
2019-05-21T05:16:13.143Z,99.90
2019-05-21T05:18:42.868Z,99.90
2019-05-21T05:21:12.549Z,99.90
2019-05-21T05:23:42.485Z,99.90
2019-05-21T05:26:15.609Z,99.90
2019-05-21T05:28:45.192Z,99.90
2019-05-21T05:31:15.624Z,99.90
2019-05-21T05:33:45.587Z,99.90
2019-05-21T05:36:15.323Z,99.90
2019-05-21T05:38:45.077Z,99.90
2019-05-21T05:41:16.054Z,99.90
2019-05-21T05:43:51.328Z,99.90
2019-05-21T05:46:21.234Z,99.90
2019-05-21T05:48:56.733Z,99.90
2019-05-21T05:51:26.412Z,99.90
2019-05-21T05:53:57.286Z,99.90
2019-05-21T05:56:27.537Z,99.90
2019-05-21T05:58:57.273Z,99.90
2019-05-21T06:01:28.529Z,99.90
2019-05-21T06:03:58.296Z,99.90
2019-05-21T06:06:34.991Z,99.90
2019-05-21T06:09:06.163Z,99.90
2019-05-21T06:11:35.887Z,99.90
2019-05-21T06:14:05.736Z,99.90
2019-05-21T06:16:35.561Z,99.90
2019-05-21T06:19:05.600Z,99.90
2019-05-21T06:21:35.583Z,99.90
2019-05-21T06:24:05.626Z,99.90
2019-05-21T06:26:35.923Z,99.90
2019-05-21T06:29:08.641Z,99.90
2019-05-21T06:31:38.587Z,99.90
2019-05-21T06:34:08.371Z,99.90
2019-05-21T06:36:38.032Z,99.90
2019-05-21T06:39:08.361Z,99.90
2019-05-21T06:41:38.203Z,99.90
2019-05-21T06:44:07.943Z,99.90
2019-05-21T06:46:38.117Z,99.90
2019-05-21T06:49:08.513Z,99.90
2019-05-21T06:51:38.812Z,99.90
2019-05-21T06:54:08.679Z,99.90
2019-05-21T06:56:38.806Z,99.90
2019-05-21T06:59:08.538Z,99.90
2019-05-21T07:01:38.133Z,99.90
2019-05-21T07:04:07.824Z,99.90
2019-05-21T07:06:37.844Z,99.90
2019-05-21T07:09:08.210Z,99.90
2019-05-21T07:11:37.985Z,99.90
2019-05-21T07:14:07.660Z,99.90
2019-05-21T07:16:37.413Z,99.90
2019-05-21T07:19:10.170Z,99.90
2019-05-21T07:21:40.462Z,99.90
2019-05-21T07:24:10.546Z,99.90
2019-05-21T07:26:40.247Z,99.90
2019-05-21T07:29:10.436Z,99.90
2019-05-21T07:31:42.906Z,99.90
2019-05-21T07:34:12.725Z,99.90
2019-05-21T07:36:43.036Z,99.90
2019-05-21T07:39:13.029Z,99.90
2019-05-21T07:41:43.150Z,99.90
2019-05-21T07:44:13.296Z,99.90
2019-05-21T07:46:43.090Z,99.90
2019-05-21T07:49:12.899Z,99.90
2019-05-21T07:51:43.140Z,99.90
2019-05-21T07:54:13.235Z,99.90
2019-05-21T07:56:43.708Z,99.90
2019-05-21T07:59:13.746Z,99.90
2019-05-21T08:01:44.006Z,99.90
2019-05-21T08:04:13.738Z,99.90
2019-05-21T08:06:45.942Z,99.90
2019-05-21T08:09:15.484Z,99.90
2019-05-21T08:11:47.126Z,99.90
2019-05-21T08:14:16.787Z,99.90
2019-05-21T08:16:46.429Z,99.90
2019-05-21T08:19:16.147Z,99.90
2019-05-21T08:21:46.462Z,99.90
2019-05-21T08:24:16.177Z,99.90
2019-05-21T08:26:45.860Z,99.90
2019-05-21T08:29:15.503Z,99.90
2019-05-21T08:31:46.755Z,99.90
2019-05-21T08:34:16.844Z,99.90
2019-05-21T08:36:46.542Z,98.80
2019-05-21T08:39:28.165Z,99.90
2019-05-21T08:41:47.612Z,99.90
2019-05-21T08:44:19.567Z,99.90
2019-05-21T08:46:49.573Z,99.80
2019-05-21T08:49:19.376Z,99.90
2019-05-21T08:51:49.200Z,99.90
2019-05-21T08:54:38.234Z,99.90
2019-05-21T08:57:07.991Z,99.90
2019-05-21T08:59:37.753Z,99.90
2019-05-21T09:02:07.752Z,99.90
2019-05-21T09:04:46.416Z,99.30
2019-05-21T09:07:09.158Z,99.90
2019-05-21T09:09:49.820Z,99.90
2019-05-21T09:12:10.564Z,99.40
2019-05-21T09:14:40.386Z,99.90
2019-05-21T09:17:10.511Z,99.60
2019-05-21T09:19:40.456Z,99.30
2019-05-21T09:22:10.274Z,99.70
2019-05-21T09:24:40.353Z,99.90
2019-05-21T09:27:10.308Z,99.90
2019-05-21T09:29:40.799Z,99.90
2019-05-21T09:32:11.018Z,99.90
2019-05-21T09:34:48.769Z,99.90
2019-05-21T09:37:19.882Z,99.90
2019-05-21T09:39:44.010Z,99.90
2019-05-21T09:42:13.731Z,99.90
2019-05-21T09:44:43.948Z,98.60
2019-05-21T09:47:14.051Z,99.30
2019-05-21T09:49:44.009Z,99.90
2019-05-21T09:52:13.965Z,99.90
2019-05-21T09:54:43.804Z,99.90
2019-05-21T09:57:15.769Z,99.90
2019-05-21T09:59:53.669Z,99.90
2019-05-21T10:02:25.871Z,99.90
2019-05-21T10:04:56.408Z,99.90
2019-05-21T10:07:39.195Z,99.90
2019-05-21T10:09:57.557Z,99.90
2019-05-21T10:12:27.111Z,99.90
2019-05-21T10:14:56.988Z,99.90
2019-05-21T10:17:26.911Z,98.10
2019-05-21T10:19:58.793Z,99.90
2019-05-21T10:22:27.899Z,99.00
2019-05-21T10:24:58.198Z,99.90
2019-05-21T10:27:27.983Z,99.90
2019-05-21T10:29:57.610Z,99.90
2019-05-21T10:32:27.792Z,99.20
2019-05-21T10:34:57.441Z,99.10
2019-05-21T10:37:28.205Z,99.30
2019-05-21T10:39:58.190Z,99.20
2019-05-21T10:42:28.446Z,99.90
2019-05-21T10:44:58.164Z,99.70
2019-05-21T10:47:31.079Z,98.90
2019-05-21T10:50:00.842Z,99.90
2019-05-21T10:52:30.946Z,99.90
2019-05-21T10:55:00.739Z,99.00
2019-05-21T10:57:30.650Z,99.20
2019-05-21T11:00:00.465Z,99.70
2019-05-21T11:02:45.074Z,98.70
2019-05-21T11:05:28.716Z,98.00
2019-05-21T11:07:56.517Z,99.10
2019-05-21T11:10:26.362Z,98.60
2019-05-21T11:12:55.897Z,97.40
2019-05-21T11:15:25.826Z,97.60
2019-05-21T11:18:09.735Z,97.30
2019-05-21T11:20:28.056Z,97.50
2019-05-21T11:22:58.375Z,97.70
2019-05-21T11:25:28.038Z,96.60
2019-05-21T11:27:58.110Z,97.10
2019-05-21T11:30:27.840Z,96.50
2019-05-21T11:32:57.584Z,96.50
2019-05-21T11:35:27.827Z,95.70
2019-05-21T11:37:57.534Z,95.80
2019-05-21T11:40:29.270Z,95.20
2019-05-21T11:42:59.257Z,95.10
2019-05-21T11:45:32.695Z,95.30
2019-05-21T11:48:01.328Z,94.70
2019-05-21T11:50:31.449Z,94.90
2019-05-21T11:53:02.361Z,94.90
2019-05-21T11:55:32.180Z,94.70
2019-05-21T11:58:02.585Z,95.20
2019-05-21T12:00:32.060Z,94.00
2019-05-21T12:03:01.866Z,94.30
2019-05-21T12:05:34.773Z,94.90
2019-05-21T12:08:04.865Z,94.90
2019-05-21T12:10:35.220Z,95.30
2019-05-21T12:13:04.800Z,94.50
2019-05-21T12:15:34.737Z,95.10
2019-05-21T12:18:04.692Z,95.70
2019-05-21T12:20:37.066Z,94.90
2019-05-21T12:23:06.239Z,95.00
2019-05-21T12:25:36.524Z,96.40
2019-05-21T12:28:10.453Z,96.30
2019-05-21T12:30:38.029Z,96.80
2019-05-21T12:33:08.110Z,96.20
2019-05-21T12:35:37.741Z,96.30
2019-05-21T12:38:07.558Z,95.70
2019-05-21T12:40:37.575Z,98.40
2019-05-21T12:43:20.816Z,97.30
2019-05-21T12:45:50.868Z,99.90
2019-05-21T12:48:20.857Z,99.70
2019-05-21T12:50:50.868Z,99.10
2019-05-21T12:53:21.228Z,97.90
2019-05-21T12:55:51.336Z,98.50
2019-05-21T12:58:21.188Z,96.60
2019-05-21T13:00:51.067Z,96.60
2019-05-21T13:03:20.826Z,96.70
2019-05-21T13:05:50.990Z,97.90
2019-05-21T13:08:21.529Z,99.10
2019-05-21T13:10:51.175Z,97.60
2019-05-21T13:13:20.994Z,97.30
2019-05-21T13:15:50.752Z,97.60
2019-05-21T13:18:21.463Z,97.60
2019-05-21T13:20:51.515Z,96.70
2019-05-21T13:23:21.291Z,97.20
2019-05-21T13:25:51.551Z,96.10
2019-05-21T13:28:21.846Z,96.50
2019-05-21T13:30:51.897Z,96.60
2019-05-21T13:33:21.919Z,96.10
2019-05-21T13:35:51.685Z,96.90
2019-05-21T13:38:21.867Z,96.20
2019-05-21T13:40:52.343Z,96.60
2019-05-21T13:43:22.190Z,95.70
2019-05-21T13:45:52.308Z,96.60
2019-05-21T13:48:22.186Z,95.70
2019-05-21T13:50:52.001Z,96.10
2019-05-21T13:53:21.661Z,96.40
2019-05-21T13:55:52.024Z,97.20
2019-05-21T13:58:21.750Z,97.50
2019-05-21T14:00:54.970Z,96.70
2019-05-21T14:03:24.856Z,95.70
2019-05-21T14:05:54.867Z,97.80
2019-05-21T14:08:56.000Z,97.10
2019-05-21T14:11:25.167Z,98.70
2019-05-21T14:14:02.889Z,98.30
2019-05-21T14:16:34.793Z,98.60
2019-05-21T14:19:04.111Z,98.70
2019-05-21T14:21:34.002Z,98.60
2019-05-21T14:24:03.955Z,97.60
2019-05-21T14:26:34.145Z,98.50
2019-05-21T14:29:03.917Z,97.40
2019-05-21T14:31:33.916Z,96.40
2019-05-21T14:34:04.164Z,97.10
2019-05-21T14:36:33.900Z,97.80
2019-05-21T14:39:06.624Z,95.60
2019-05-21T14:41:36.438Z,96.70
2019-05-21T14:44:06.965Z,96.60
2019-05-21T14:46:36.733Z,96.70
2019-05-21T14:49:06.712Z,96.30
2019-05-21T14:51:37.132Z,96.30
2019-05-21T14:54:07.433Z,96.90
2019-05-21T14:56:37.173Z,96.10
2019-05-21T14:59:07.103Z,97.90
2019-05-21T15:01:36.872Z,97.40
2019-05-21T15:04:06.753Z,98.10
2019-05-21T15:06:36.420Z,96.80
2019-05-21T15:09:07.281Z,96.70
2019-05-21T15:11:37.283Z,98.00
2019-05-21T15:14:07.123Z,96.80
2019-05-21T15:16:37.568Z,96.70
2019-05-21T15:19:07.635Z,95.70
2019-05-21T15:21:50.513Z,97.60
2019-05-21T15:24:20.500Z,97.60
2019-05-21T15:26:50.748Z,96.70
2019-05-21T15:29:20.653Z,96.70
2019-05-21T15:31:50.708Z,97.10
2019-05-21T15:34:20.428Z,98.60
2019-05-21T15:36:50.361Z,97.10
2019-05-21T15:39:20.303Z,96.30
2019-05-21T15:41:50.114Z,98.10
2019-05-21T15:44:20.131Z,97.90
2019-05-21T15:46:50.772Z,97.20
2019-05-21T15:49:35.556Z,97.90
2019-05-21T15:51:53.799Z,98.20
2019-05-21T15:54:23.584Z,97.40
2019-05-21T15:56:53.512Z,97.90
2019-05-21T15:59:23.262Z,95.80
2019-05-21T16:01:53.208Z,95.90
2019-05-21T16:04:23.077Z,95.70
2019-05-21T16:06:53.615Z,96.60
2019-05-21T16:09:23.338Z,96.70
2019-05-21T16:11:53.592Z,96.70
2019-05-21T16:14:23.584Z,97.00
2019-05-21T16:16:53.331Z,96.70
2019-05-21T16:19:23.348Z,95.80
2019-05-21T16:21:52.994Z,96.30
2019-05-21T16:24:23.038Z,96.60
2019-05-21T16:26:52.970Z,97.00
2019-05-21T16:29:23.570Z,97.00
2019-05-21T16:31:53.309Z,97.50
2019-05-21T16:34:23.091Z,96.70
2019-05-21T16:36:53.142Z,95.70
2019-05-21T16:39:23.436Z,96.70
2019-05-21T16:41:53.467Z,96.70
2019-05-21T16:44:23.498Z,95.80
2019-05-21T16:46:53.163Z,96.30
2019-05-21T16:49:23.324Z,96.10
2019-05-21T16:51:53.455Z,96.70
2019-05-21T16:54:23.366Z,95.10
2019-05-21T16:56:53.766Z,94.90
2019-05-21T16:59:23.842Z,95.00
2019-05-21T17:01:54.006Z,94.90
2019-05-21T17:04:23.937Z,95.30
2019-05-21T17:06:53.987Z,94.60
2019-05-21T17:09:27.687Z,94.50
2019-05-21T17:11:59.905Z,95.50
2019-05-21T17:14:27.117Z,94.50
2019-05-21T17:16:57.839Z,94.70
2019-05-21T17:19:27.932Z,95.00
2019-05-21T17:22:09.151Z,95.10
2019-05-21T17:24:39.591Z,95.80
2019-05-21T17:27:09.465Z,94.30
2019-05-21T17:29:39.903Z,93.90
2019-05-21T17:32:09.897Z,94.80
2019-05-21T17:34:39.656Z,94.10
2019-05-21T17:37:10.091Z,94.10
2019-05-21T17:39:40.010Z,94.80
2019-05-21T17:42:15.524Z,94.70
2019-05-21T17:44:42.563Z,94.50
2019-05-21T17:47:12.742Z,94.60
2019-05-21T17:49:42.397Z,94.70
2019-05-21T17:52:12.695Z,95.00
2019-05-21T17:54:55.658Z,94.50
2019-05-21T17:57:14.204Z,95.40
2019-05-21T17:59:44.636Z,94.60
2019-05-21T18:02:16.511Z,94.40
2019-05-21T18:04:51.709Z,94.90
2019-05-21T18:07:34.559Z,95.30
2019-05-21T18:10:08.713Z,94.10
2019-05-21T18:12:39.006Z,94.40
2019-05-21T18:15:11.698Z,94.30
2019-05-21T18:17:49.291Z,93.00
2019-05-21T18:20:21.194Z,93.80
2019-05-21T18:22:54.394Z,93.90
2019-05-21T18:25:28.620Z,95.10
2019-05-21T18:27:58.500Z,94.50
2019-05-21T18:30:33.235Z,93.90
2019-05-21T18:33:03.820Z,94.50
2019-05-21T18:35:37.948Z,93.90
2019-05-21T18:38:09.047Z,93.80
2019-05-21T18:40:39.502Z,94.70
2019-05-21T18:43:09.824Z,94.70
2019-05-21T18:45:40.207Z,93.60
2019-05-21T18:48:10.461Z,93.30
2019-05-21T18:50:40.258Z,93.90
2019-05-21T18:53:10.471Z,93.50
2019-05-21T18:55:40.801Z,93.70
2019-05-21T18:58:10.741Z,93.60
2019-05-21T19:00:40.315Z,93.60
2019-05-21T19:03:10.880Z,94.90
2019-05-21T19:05:42.749Z,94.20
2019-05-21T19:08:13.177Z,94.00
2019-05-21T19:10:48.869Z,94.10
2019-05-21T19:13:18.915Z,94.40
2019-05-21T19:15:48.753Z,93.60
2019-05-21T19:18:18.967Z,94.40
2019-05-21T19:20:50.143Z,94.50
2019-05-21T19:23:20.092Z,94.60
2019-05-21T19:25:49.885Z,93.90
2019-05-21T19:28:22.018Z,93.80
2019-05-21T19:30:51.798Z,94.50
2019-05-21T19:33:23.080Z,93.80
2019-05-21T19:35:53.311Z,94.10
2019-05-21T19:38:24.462Z,94.00
2019-05-21T19:40:54.588Z,93.60
2019-05-21T19:43:25.827Z,93.30
2019-05-21T19:45:55.606Z,93.70
2019-05-21T19:48:43.990Z,93.80
2019-05-21T19:55:41.755Z,94.10
2019-05-21T19:58:13.909Z,95.10
2019-05-21T20:00:50.492Z,95.10
2019-05-21T20:03:34.100Z,95.30
2019-05-21T20:06:04.848Z,94.60
2019-05-21T20:08:35.327Z,94.70
2019-05-21T20:11:07.472Z,94.60
2019-05-21T20:13:47.617Z,93.40
2019-05-21T20:16:19.112Z,93.80
2019-05-21T20:18:54.625Z,94.40
2019-05-21T20:21:24.957Z,94.80
2019-05-21T20:23:58.697Z,95.50
2019-05-21T20:26:33.339Z,95.50
2019-05-21T20:29:04.907Z,95.30
2019-05-21T20:31:36.182Z,94.50
2019-05-21T20:34:07.177Z,93.30
2019-05-21T20:36:40.609Z,94.80
2019-05-21T20:39:10.255Z,95.20
2019-05-21T20:41:42.331Z,95.40
2019-05-21T20:44:14.924Z,94.70
2019-05-21T20:46:45.535Z,94.50
2019-05-21T20:49:22.329Z,94.50
2019-05-21T20:51:52.060Z,95.00
2019-05-21T20:54:23.560Z,94.90
2019-05-21T20:56:54.307Z,94.90
2019-05-21T20:59:24.325Z,94.90
2019-05-21T21:01:54.726Z,95.10
2019-05-21T21:04:24.590Z,95.30
2019-05-21T21:06:54.837Z,95.60
2019-05-21T21:09:25.510Z,95.40
2019-05-21T21:11:55.919Z,94.40
2019-05-21T21:14:28.641Z,93.90
2019-05-21T21:16:59.607Z,95.20
2019-05-21T21:19:29.822Z,94.30
2019-05-21T21:22:00.124Z,94.50
2019-05-21T21:24:30.475Z,95.30
2019-05-21T21:27:01.997Z,95.60
2019-05-21T21:29:31.941Z,95.50
2019-05-21T21:32:01.551Z,95.40
2019-05-21T21:34:31.237Z,95.40
2019-05-21T21:37:01.489Z,95.30
2019-05-21T21:39:31.243Z,95.70
2019-05-21T21:42:02.802Z,95.30
2019-05-21T21:44:34.517Z,94.60
2019-05-21T21:47:04.766Z,95.20
2019-05-21T21:52:07.820Z,94.50
2019-05-21T21:54:38.285Z,94.20
2019-05-21T21:57:08.316Z,95.60
2019-05-21T21:59:39.958Z,95.60
2019-05-21T22:02:21.253Z,94.60
2019-05-21T22:04:53.797Z,94.80
2019-05-21T22:07:26.475Z,95.80
2019-05-21T22:10:11.138Z,96.60
2019-05-21T22:12:41.170Z,96.70
2019-05-21T22:15:11.589Z,95.40
2019-05-21T22:17:45.221Z,97.00
2019-05-21T22:20:15.571Z,96.10
2019-05-21T22:22:46.852Z,95.10
2019-05-21T22:25:16.587Z,95.20
2019-05-21T22:27:47.108Z,95.50
2019-05-21T22:30:19.817Z,96.40
2019-05-21T22:32:49.829Z,97.00
2019-05-21T22:35:20.208Z,95.00
2019-05-21T22:37:56.276Z,96.20
2019-05-21T22:40:38.116Z,95.60
2019-05-21T22:43:09.875Z,95.10
2019-05-21T22:45:39.677Z,95.70
2019-05-21T22:48:09.693Z,96.70
2019-05-21T22:50:39.522Z,96.20
2019-05-21T22:53:10.370Z,95.60
2019-05-21T22:55:40.263Z,95.90
2019-05-21T22:58:10.176Z,95.10
2019-05-21T23:00:41.220Z,95.20
2019-05-21T23:03:11.622Z,95.10
2019-05-21T23:05:41.671Z,95.70
2019-05-21T23:08:11.571Z,96.30
2019-05-21T23:10:41.976Z,97.20
2019-05-21T23:13:12.526Z,97.50
2019-05-21T23:15:43.087Z,95.90
2019-05-21T23:18:13.293Z,97.90
2019-05-21T23:20:44.164Z,97.80
2019-05-21T23:23:16.356Z,97.00
2019-05-21T23:25:47.294Z,96.60
2019-05-21T23:28:17.735Z,96.40
2019-05-21T23:30:50.692Z,97.20
2019-05-21T23:33:21.508Z,97.00
2019-05-21T23:35:52.239Z,97.60
2019-05-21T23:38:30.756Z,97.50
2019-05-21T23:41:00.602Z,97.10
2019-05-21T23:43:31.070Z,98.30
2019-05-21T23:46:01.233Z,97.80
2019-05-21T23:48:31.869Z,98.30
2019-05-21T23:51:03.975Z,97.60
2019-05-21T23:53:37.948Z,97.80
2019-05-21T23:56:07.819Z,97.20
2019-05-21T23:58:37.912Z,98.40
